createdAt,value
2023-04-15T05:43:38.737Z,99700.72
2023-04-15T05:46:08.703Z,99709.56
2023-04-15T05:48:37.401Z,99712.75
2023-04-15T05:51:06.610Z,99707.91
2023-04-15T05:53:35.347Z,99718.44
2023-04-15T05:56:03.936Z,99721.56
2023-04-15T05:58:32.624Z,99718.31
2023-04-15T06:01:01.416Z,99721.19
2023-04-15T06:03:30.740Z,99714.84
2023-04-15T06:05:59.567Z,99720.31
2023-04-15T06:08:28.134Z,99711.41
2023-04-15T06:10:56.886Z,99712.09
2023-04-15T06:13:25.883Z,99714.88
2023-04-15T06:15:54.576Z,99715.41
2023-04-15T06:18:23.230Z,99714.28
2023-04-15T06:20:52.053Z,99705.28
2023-04-15T06:23:21.008Z,99704.63
2023-04-15T06:25:49.641Z,99707.97
2023-04-15T06:28:18.231Z,99701.75
2023-04-15T06:30:46.910Z,99703.63
2023-04-15T06:33:15.526Z,99703.84
2023-04-15T06:35:44.030Z,99712.22
2023-04-15T06:38:12.651Z,99708.72
2023-04-15T06:40:41.417Z,99705.00
2023-04-15T06:43:10.365Z,99709.25
2023-04-15T06:45:39.536Z,99706.91
2023-04-15T06:48:08.152Z,99707.59
2023-04-15T06:50:36.759Z,99699.88
2023-04-15T06:53:05.851Z,99710.59
2023-04-15T06:55:34.436Z,99707.72
2023-04-15T06:58:02.964Z,99709.53
2023-04-15T07:00:31.581Z,99716.16
2023-04-15T07:03:03.752Z,99704.31
2023-04-15T07:05:32.551Z,99700.16
2023-04-15T07:08:01.152Z,99698.09
2023-04-15T07:10:30.046Z,99707.94
2023-04-15T07:12:58.714Z,99703.25
2023-04-15T07:15:27.670Z,99708.63
2023-04-15T07:18:01.137Z,99703.56
2023-04-15T07:20:33.980Z,99707.38
2023-04-15T07:23:03.246Z,99715.72
2023-04-15T07:25:44.503Z,99704.72
2023-04-15T07:28:39.406Z,99705.16
2023-04-15T07:31:12.332Z,99698.50
2023-04-15T07:33:43.729Z,99704.50
2023-04-15T07:36:13.493Z,99688.31
2023-04-15T07:38:45.365Z,99692.06
2023-04-15T07:41:14.434Z,99689.25
2023-04-15T07:43:43.660Z,99697.91
2023-04-15T07:46:13.046Z,99704.97
2023-04-15T07:48:42.769Z,99701.16
2023-04-15T07:51:13.039Z,99678.59
2023-04-15T07:53:42.630Z,99690.06
2023-04-15T07:56:11.972Z,99692.28
2023-04-15T07:58:41.514Z,99698.56
2023-04-15T08:01:10.509Z,99693.06
2023-04-15T08:03:39.809Z,99711.75
2023-04-15T08:06:09.596Z,99693.94
2023-04-15T08:09:10.701Z,99694.41
2023-04-15T08:24:17.664Z,99687.72
2023-04-15T08:46:25.084Z,99703.56
2023-04-15T08:53:10.910Z,99690.44
2023-04-15T08:57:08.837Z,99677.63
2023-04-15T09:04:19.657Z,99694.94
2023-04-15T09:08:08.244Z,99694.19
2023-04-15T09:28:17.655Z,99685.19
2023-04-15T09:31:18.342Z,99678.06
2023-04-15T09:34:43.752Z,99686.06
2023-04-15T09:42:03.397Z,99668.22
2023-04-15T09:53:18.876Z,99688.97
2023-04-15T10:06:54.760Z,99652.78
2023-04-15T10:10:30.553Z,99654.31
2023-04-15T10:14:15.421Z,99660.56
2023-04-15T10:17:23.189Z,99653.75
2023-04-15T10:22:09.718Z,99674.91
2023-04-15T10:40:21.569Z,99660.53
2023-04-15T10:43:13.113Z,99656.75
2023-04-15T10:46:18.178Z,99649.22
2023-04-15T10:49:25.591Z,99650.38
2023-04-15T10:52:56.942Z,99653.28
2023-04-15T10:57:03.458Z,99657.94
2023-04-15T11:00:16.387Z,99646.72
2023-04-15T11:03:27.142Z,99649.56
2023-04-15T11:05:57.076Z,99650.38
2023-04-15T11:09:48.160Z,99645.94
2023-04-15T11:12:20.288Z,99636.25
2023-04-15T11:14:49.564Z,99630.19
2023-04-15T11:17:31.704Z,99638.03
2023-04-15T11:20:01.485Z,99627.13
2023-04-15T11:22:35.792Z,99626.84
2023-04-15T11:25:25.884Z,99610.50
2023-04-15T11:28:00.887Z,99643.72
2023-04-15T11:30:46.586Z,99619.59
2023-04-15T11:33:33.036Z,99641.22
2023-04-15T11:36:02.575Z,99635.75
2023-04-15T11:38:38.399Z,99631.50
2023-04-15T11:41:07.537Z,99638.16
2023-04-15T11:43:39.688Z,99618.50
2023-04-15T11:46:09.117Z,99626.78
2023-04-15T11:48:45.885Z,99617.63
2023-04-15T11:51:27.997Z,99618.47
2023-04-15T11:53:58.447Z,99628.66
2023-04-15T11:56:27.355Z,99625.88
2023-04-15T11:58:58.913Z,99618.94
2023-04-15T12:01:39.964Z,99621.72
2023-04-15T12:04:17.113Z,99631.75
2023-04-15T12:06:45.660Z,99616.28
2023-04-15T12:09:15.496Z,99619.84
2023-04-15T12:11:50.401Z,99623.16
2023-04-15T12:14:24.455Z,99637.00
2023-04-15T12:17:01.559Z,99627.06
2023-04-15T12:19:36.438Z,99627.22
2023-04-15T12:22:06.822Z,99631.81
2023-04-15T12:24:35.983Z,99630.16
2023-04-15T12:27:05.824Z,99632.63
2023-04-15T12:29:35.064Z,99634.59
2023-04-15T12:32:08.283Z,99631.69
2023-04-15T12:34:37.209Z,99634.06
2023-04-15T12:37:06.915Z,99629.03
2023-04-15T12:39:40.193Z,99635.41
2023-04-15T12:42:09.120Z,99630.28
2023-04-15T12:44:37.956Z,99625.75
2023-04-15T12:47:06.044Z,99624.34
2023-04-15T12:49:34.040Z,99635.97
2023-04-15T12:52:02.640Z,99627.81
2023-04-15T12:54:31.523Z,99625.53
2023-04-15T12:57:00.972Z,99624.72
2023-04-15T12:59:29.218Z,99633.94
2023-04-15T13:01:57.285Z,99636.16
2023-04-15T13:04:50.323Z,99643.06
2023-04-15T13:07:21.280Z,99646.22
2023-04-15T13:09:49.246Z,99632.28
2023-04-15T13:12:17.070Z,99638.97
2023-04-15T13:14:44.829Z,99632.91
2023-04-15T13:17:12.732Z,99629.06
2023-04-15T13:19:42.906Z,99642.06
2023-04-15T13:22:20.445Z,99635.44
2023-04-15T13:24:54.134Z,99635.13
2023-04-15T13:27:22.500Z,99638.19
2023-04-15T13:30:07.657Z,99635.78
2023-04-15T13:32:42.679Z,99637.28
2023-04-15T13:35:13.439Z,99641.69
2023-04-15T13:37:41.241Z,99631.47
2023-04-15T13:40:12.576Z,99637.56
2023-04-15T13:42:45.239Z,99630.66
2023-04-15T13:45:13.762Z,99631.78
2023-04-15T13:47:45.623Z,99635.66
2023-04-15T13:50:13.863Z,99631.41
2023-04-15T13:52:42.872Z,99632.84
2023-04-15T13:55:19.062Z,99633.97
2023-04-15T13:57:48.519Z,99635.03
2023-04-15T14:00:16.841Z,99635.91
2023-04-15T14:02:56.844Z,99621.41
2023-04-15T14:05:27.267Z,99620.69
2023-04-15T14:08:00.121Z,99641.19
2023-04-15T14:10:27.779Z,99637.31
2023-04-15T14:12:55.528Z,99642.47
2023-04-15T14:15:23.195Z,99639.53
2023-04-15T14:17:51.209Z,99628.47
2023-04-15T14:32:44.966Z,99645.31
2023-04-15T14:35:12.726Z,99649.34
2023-04-15T14:37:45.023Z,99659.31
2023-04-15T14:40:12.577Z,99657.44
2023-04-15T14:42:40.222Z,99656.94
2023-04-15T14:45:08.455Z,99654.88
2023-04-15T14:47:35.972Z,99658.88
2023-04-15T14:50:04.057Z,99656.41
2023-04-15T14:52:38.931Z,99661.94
2023-04-15T14:55:13.379Z,99665.25
2023-04-15T14:57:42.477Z,99667.72
2023-04-15T15:00:13.792Z,99677.00
2023-04-15T15:02:44.057Z,99680.72
2023-04-15T15:05:12.306Z,99674.84
2023-04-15T15:07:43.556Z,99687.03
2023-04-15T15:10:11.101Z,99681.69
2023-04-15T15:12:38.672Z,99687.75
2023-04-15T15:15:15.684Z,99690.22
2023-04-15T15:17:53.625Z,99698.16
2023-04-15T15:20:21.541Z,99704.31
2023-04-15T15:22:49.124Z,99699.66
2023-04-15T15:25:16.758Z,99687.47
2023-04-15T15:27:44.693Z,99706.03
2023-04-15T15:30:13.243Z,99696.31
2023-04-15T15:33:04.211Z,99699.75
2023-04-15T15:36:02.337Z,99703.56
2023-04-15T15:39:01.509Z,99705.78
2023-04-15T15:41:29.251Z,99712.44
2023-04-15T15:44:19.371Z,99705.09
2023-04-15T15:47:00.027Z,99707.72
2023-04-15T15:50:06.015Z,99712.72
2023-04-15T15:52:38.075Z,99719.03
2023-04-15T15:55:06.464Z,99726.06
2023-04-15T15:57:33.950Z,99727.56
2023-04-15T16:00:11.973Z,99728.53
2023-04-15T16:05:18.626Z,99730.25
2023-04-15T16:07:46.156Z,99724.75
2023-04-15T16:10:14.231Z,99722.00
2023-04-15T16:12:48.879Z,99734.34
2023-04-15T16:15:30.362Z,99720.81
2023-04-15T16:17:58.815Z,99729.84
2023-04-15T16:24:03.645Z,99722.25
2023-04-15T16:26:31.452Z,99734.44
2023-04-15T16:28:59.443Z,99740.50
2023-04-15T16:31:31.147Z,99745.66
2023-04-15T16:33:59.032Z,99747.94
2023-04-15T16:36:26.632Z,99754.97
2023-04-15T16:38:56.842Z,99766.38
2023-04-15T16:41:26.986Z,99763.06
2023-04-15T16:44:01.655Z,99767.84
2023-04-15T16:46:38.109Z,99772.16
2023-04-15T16:49:07.315Z,99782.19
2023-04-15T16:51:35.117Z,99784.34
2023-04-15T16:54:02.819Z,99789.34
2023-04-15T16:56:33.812Z,99792.22
2023-04-15T16:59:01.534Z,99795.13
2023-04-15T17:01:29.615Z,99788.59
2023-04-15T17:04:01.849Z,99801.94
2023-04-15T17:06:29.807Z,99810.28
2023-04-15T17:09:10.418Z,99807.16
2023-04-15T17:11:56.054Z,99818.63
2023-04-15T17:14:45.622Z,99811.94
2023-04-15T17:17:34.552Z,99820.16
2023-04-15T17:20:07.195Z,99823.13
2023-04-15T17:22:44.616Z,99830.88
2023-04-15T17:25:18.466Z,99824.56
2023-04-15T17:31:07.595Z,99845.00
2023-04-15T17:34:06.597Z,99865.69
2023-04-15T17:36:41.671Z,99866.50
2023-04-15T17:39:34.110Z,99864.56
2023-04-15T17:42:24.553Z,99873.69
2023-04-15T17:45:14.976Z,99872.34
2023-04-15T17:49:06.173Z,99888.13
2023-04-15T17:52:20.845Z,99877.81
2023-04-15T18:04:21.021Z,99919.13
2023-04-15T18:15:20.437Z,99931.06
2023-04-15T18:25:09.752Z,99932.97
2023-04-15T18:27:40.487Z,99939.56
2023-04-15T18:30:10.123Z,99932.31
2023-04-15T18:32:38.972Z,99938.81
2023-04-15T18:35:11.780Z,99949.38
2023-04-15T18:37:42.056Z,99945.50
2023-04-15T18:40:13.892Z,99963.28
2023-04-15T18:42:45.258Z,99969.22
2023-04-15T18:45:13.012Z,99969.75
2023-04-15T18:47:40.810Z,99990.84
2023-04-15T18:50:09.088Z,99982.28
2023-04-15T18:52:51.861Z,99989.97
2023-04-15T18:55:20.121Z,99996.88
2023-04-15T18:57:48.315Z,100009.38
2023-04-15T19:00:19.272Z,100006.25
2023-04-15T19:02:49.076Z,99999.72
2023-04-15T19:05:18.387Z,100010.19
2023-04-15T19:07:46.250Z,100010.09
2023-04-15T19:10:16.619Z,100012.94
2023-04-15T19:12:44.776Z,100015.59
2023-04-15T19:15:12.931Z,100017.63
2023-04-15T19:17:41.518Z,100030.28
2023-04-15T19:20:10.924Z,100025.22
2023-04-15T19:22:40.493Z,100038.78
2023-04-15T19:25:13.349Z,100031.69
2023-04-15T19:27:42.427Z,100037.47
2023-04-15T19:30:10.918Z,100031.88
2023-04-15T19:32:38.908Z,100044.16
2023-04-15T19:35:08.359Z,100042.88
2023-04-15T19:37:39.239Z,100049.13
2023-04-15T19:40:08.736Z,100043.69
2023-04-15T19:42:36.692Z,100056.72
2023-04-15T19:45:10.057Z,100057.66
2023-04-15T19:47:37.766Z,100073.50
2023-04-15T19:50:07.369Z,100067.13
2023-04-15T19:52:35.443Z,100065.47
2023-04-15T19:55:04.395Z,100075.72
2023-04-15T19:57:32.391Z,100090.97
2023-04-15T20:00:00.278Z,100080.53
2023-04-15T20:02:30.694Z,100077.22
2023-04-15T20:05:00.090Z,100077.41
2023-04-15T20:07:27.945Z,100082.44
2023-04-15T20:09:56.422Z,100084.78
2023-04-15T20:12:50.993Z,100092.00
2023-04-15T20:15:12.435Z,100095.28
2023-04-15T20:17:43.775Z,100091.00
2023-04-15T20:20:12.816Z,100099.03
2023-04-15T20:22:41.665Z,100095.50
2023-04-15T20:25:09.975Z,100089.31
2023-04-15T20:27:38.533Z,100088.59
2023-04-15T20:30:07.548Z,100093.97
2023-04-15T20:32:37.456Z,100093.22
2023-04-15T20:35:07.231Z,100103.84
2023-04-15T20:37:38.534Z,100096.97
2023-04-15T20:40:07.276Z,100116.50
2023-04-15T20:42:37.669Z,100115.06
2023-04-15T20:45:08.728Z,100118.28
2023-04-15T20:47:36.852Z,100122.94
2023-04-15T20:50:08.431Z,100125.28
2023-04-15T20:52:42.237Z,100130.31
2023-04-15T20:55:10.158Z,100123.22
2023-04-15T20:57:41.092Z,100126.22
2023-04-15T21:00:12.258Z,100129.19
2023-04-15T21:02:40.272Z,100128.78
2023-04-15T21:05:08.144Z,100134.84
2023-04-15T21:07:36.955Z,100139.66
2023-04-15T21:10:05.969Z,100139.16
2023-04-15T21:12:34.442Z,100141.44
2023-04-15T21:15:04.686Z,100141.63
2023-04-15T21:17:36.569Z,100166.13
2023-04-15T21:20:04.585Z,100166.00
2023-04-15T21:22:33.317Z,100178.19
2023-04-15T21:25:01.082Z,100180.03
2023-04-15T21:27:30.434Z,100175.72
2023-04-15T21:29:58.395Z,100163.34
2023-04-15T21:32:26.194Z,100173.41
2023-04-15T21:34:54.041Z,100177.69
2023-04-15T21:37:23.856Z,100171.81
2023-04-15T21:39:54.318Z,100173.66
2023-04-15T21:42:22.081Z,100174.63
2023-04-15T21:44:52.367Z,100182.53
2023-04-15T21:47:20.346Z,100184.03
2023-04-15T21:49:48.332Z,100180.34
2023-04-15T21:52:17.828Z,100171.59
2023-04-15T21:54:45.745Z,100181.84
2023-04-15T21:57:17.271Z,100173.09
2023-04-15T21:59:48.367Z,100176.06
2023-04-15T22:02:16.247Z,100183.69
2023-04-15T22:04:43.903Z,100185.53
2023-04-15T22:07:11.500Z,100188.75
2023-04-15T22:09:39.093Z,100181.47
2023-04-15T22:12:06.820Z,100182.03
2023-04-15T22:14:34.364Z,100190.75
2023-04-15T22:17:02.222Z,100191.59
2023-04-15T22:19:30.309Z,100193.38
2023-04-15T22:21:58.872Z,100188.41
2023-04-15T22:24:38.639Z,100186.03
2023-04-15T22:27:08.655Z,100185.38
2023-04-15T22:29:36.419Z,100192.78
2023-04-15T22:32:04.142Z,100200.81
2023-04-15T22:34:32.011Z,100185.03
2023-04-15T22:36:59.760Z,100191.81
2023-04-15T22:39:27.747Z,100195.78
2023-04-15T22:41:56.786Z,100189.84
2023-04-15T22:44:25.543Z,100197.16
2023-04-15T22:46:56.247Z,100192.63
2023-04-15T22:49:27.524Z,100185.28
2023-04-15T22:51:55.207Z,100193.19
2023-04-15T22:54:22.888Z,100199.06
2023-04-15T22:56:50.514Z,100204.91
2023-04-15T22:59:18.019Z,100193.34
2023-04-15T23:01:45.668Z,100200.84
2023-04-15T23:04:25.657Z,100208.22
2023-04-15T23:06:55.093Z,100212.84
2023-04-15T23:09:22.825Z,100209.38
2023-04-15T23:11:50.323Z,100205.16
2023-04-15T23:14:17.953Z,100196.97
2023-04-15T23:16:45.711Z,100205.09
2023-04-15T23:19:13.421Z,100196.50
2023-04-15T23:21:41.224Z,100204.63
2023-04-15T23:24:08.836Z,100189.34
2023-04-15T23:26:36.329Z,100200.47
2023-04-15T23:29:04.174Z,100200.94
2023-04-15T23:31:31.767Z,100191.13
2023-04-15T23:33:59.358Z,100200.34
2023-04-15T23:36:27.578Z,100209.63
2023-04-15T23:38:55.306Z,100218.84
2023-04-15T23:41:22.813Z,100223.03
2023-04-15T23:43:50.443Z,100218.81
2023-04-15T23:46:17.968Z,100225.53
2023-04-15T23:48:47.837Z,100219.31
2023-04-15T23:51:15.820Z,100222.06
2023-04-15T23:53:43.398Z,100229.81
